sensor_id;sensor_type;location;lat;lon;timestamp;P1;durP1;ratioP1;P2;durP2;ratioP2
15958;SDS011;8078;47.822;9.402;2022-08-25T00:01:49;5.65;;;5.00;;
15958;SDS011;8078;47.822;9.402;2022-08-25T00:04:20;5.47;;;4.78;;
15958;SDS011;8078;47.822;9.402;2022-08-25T00:06:47;5.97;;;4.70;;
15958;SDS011;8078;47.822;9.402;2022-08-25T00:09:14;5.72;;;4.70;;
15958;SDS011;8078;47.822;9.402;2022-08-25T00:11:43;6.13;;;4.75;;
15958;SDS011;8078;47.822;9.402;2022-08-25T00:14:11;6.32;;;4.25;;
15958;SDS011;8078;47.822;9.402;2022-08-25T00:16:38;7.80;;;5.13;;
15958;SDS011;8078;47.822;9.402;2022-08-25T00:19:05;7.40;;;5.40;;
15958;SDS011;8078;47.822;9.402;2022-08-25T00:21:33;6.28;;;5.18;;
15958;SDS011;8078;47.822;9.402;2022-08-25T00:23:59;8.18;;;5.60;;
15958;SDS011;8078;47.822;9.402;2022-08-25T00:26:26;9.18;;;5.88;;
15958;SDS011;8078;47.822;9.402;2022-08-25T00:28:53;6.28;;;5.45;;
15958;SDS011;8078;47.822;9.402;2022-08-25T00:31:19;9.77;;;5.80;;
15958;SDS011;8078;47.822;9.402;2022-08-25T00:33:47;5.97;;;5.38;;
15958;SDS011;8078;47.822;9.402;2022-08-25T00:36:13;5.75;;;5.07;;
15958;SDS011;8078;47.822;9.402;2022-08-25T00:38:40;6.68;;;5.47;;
15958;SDS011;8078;47.822;9.402;2022-08-25T00:41:08;6.80;;;5.75;;
15958;SDS011;8078;47.822;9.402;2022-08-25T00:43:43;6.72;;;5.65;;
15958;SDS011;8078;47.822;9.402;2022-08-25T00:46:12;7.50;;;5.65;;
15958;SDS011;8078;47.822;9.402;2022-08-25T00:48:42;11.20;;;5.55;;
15958;SDS011;8078;47.822;9.402;2022-08-25T00:51:13;6.68;;;5.82;;
15958;SDS011;8078;47.822;9.402;2022-08-25T00:53:54;8.13;;;5.53;;
15958;SDS011;8078;47.822;9.402;2022-08-25T00:56:20;7.03;;;5.57;;
15958;SDS011;8078;47.822;9.402;2022-08-25T00:58:46;7.82;;;5.30;;
15958;SDS011;8078;47.822;9.402;2022-08-25T01:01:12;7.38;;;5.70;;
15958;SDS011;8078;47.822;9.402;2022-08-25T01:03:38;7.05;;;6.35;;
15958;SDS011;8078;47.822;9.402;2022-08-25T01:06:04;11.23;;;5.90;;
15958;SDS011;8078;47.822;9.402;2022-08-25T01:08:30;6.95;;;6.18;;
15958;SDS011;8078;47.822;9.402;2022-08-25T01:10:58;9.13;;;6.18;;
15958;SDS011;8078;47.822;9.402;2022-08-25T01:13:39;6.70;;;5.32;;
15958;SDS011;8078;47.822;9.402;2022-08-25T01:16:09;9.73;;;5.95;;
15958;SDS011;8078;47.822;9.402;2022-08-25T01:18:48;7.65;;;5.55;;
15958;SDS011;8078;47.822;9.402;2022-08-25T01:21:19;7.95;;;6.00;;
15958;SDS011;8078;47.822;9.402;2022-08-25T01:23:46;9.18;;;6.32;;
15958;SDS011;8078;47.822;9.402;2022-08-25T01:26:20;8.32;;;6.10;;
15958;SDS011;8078;47.822;9.402;2022-08-25T01:28:48;8.10;;;5.93;;
15958;SDS011;8078;47.822;9.402;2022-08-25T01:31:34;7.07;;;6.18;;
15958;SDS011;8078;47.822;9.402;2022-08-25T01:34:02;7.13;;;5.88;;
15958;SDS011;8078;47.822;9.402;2022-08-25T01:36:30;11.63;;;6.72;;
15958;SDS011;8078;47.822;9.402;2022-08-25T01:38:56;8.88;;;6.55;;
15958;SDS011;8078;47.822;9.402;2022-08-25T01:43:54;7.95;;;5.85;;
15958;SDS011;8078;47.822;9.402;2022-08-25T01:46:20;9.10;;;6.47;;
15958;SDS011;8078;47.822;9.402;2022-08-25T01:48:46;7.63;;;6.72;;
15958;SDS011;8078;47.822;9.402;2022-08-25T01:51:13;7.72;;;6.80;;
15958;SDS011;8078;47.822;9.402;2022-08-25T01:53:39;8.90;;;5.93;;
15958;SDS011;8078;47.822;9.402;2022-08-25T01:56:12;7.55;;;6.43;;
15958;SDS011;8078;47.822;9.402;2022-08-25T01:58:43;8.73;;;6.30;;
15958;SDS011;8078;47.822;9.402;2022-08-25T02:01:16;8.68;;;6.70;;
15958;SDS011;8078;47.822;9.402;2022-08-25T02:03:47;7.97;;;6.55;;
15958;SDS011;8078;47.822;9.402;2022-08-25T02:06:18;9.52;;;7.05;;
15958;SDS011;8078;47.822;9.402;2022-08-25T02:08:54;7.10;;;6.40;;
15958;SDS011;8078;47.822;9.402;2022-08-25T02:11:22;7.78;;;6.72;;
15958;SDS011;8078;47.822;9.402;2022-08-25T02:13:50;7.68;;;6.65;;
15958;SDS011;8078;47.822;9.402;2022-08-25T02:16:23;10.82;;;6.68;;
15958;SDS011;8078;47.822;9.402;2022-08-25T02:18:52;11.75;;;6.68;;
15958;SDS011;8078;47.822;9.402;2022-08-25T02:21:18;8.25;;;7.20;;
15958;SDS011;8078;47.822;9.402;2022-08-25T02:23:43;9.93;;;6.90;;
15958;SDS011;8078;47.822;9.402;2022-08-25T02:26:09;8.88;;;7.25;;
15958;SDS011;8078;47.822;9.402;2022-08-25T02:28:35;9.60;;;7.28;;
15958;SDS011;8078;47.822;9.402;2022-08-25T02:31:01;8.15;;;6.93;;
15958;SDS011;8078;47.822;9.402;2022-08-25T02:33:30;9.15;;;7.47;;
15958;SDS011;8078;47.822;9.402;2022-08-25T02:35:57;9.27;;;7.82;;
15958;SDS011;8078;47.822;9.402;2022-08-25T02:38:26;8.30;;;7.40;;
15958;SDS011;8078;47.822;9.402;2022-08-25T02:40:56;10.32;;;7.60;;
15958;SDS011;8078;47.822;9.402;2022-08-25T02:43:24;9.18;;;7.90;;
15958;SDS011;8078;47.822;9.402;2022-08-25T02:45:51;9.20;;;8.00;;
15958;SDS011;8078;47.822;9.402;2022-08-25T02:48:18;9.45;;;8.02;;
15958;SDS011;8078;47.822;9.402;2022-08-25T02:50:47;8.52;;;7.57;;
15958;SDS011;8078;47.822;9.402;2022-08-25T02:53:16;13.13;;;8.20;;
15958;SDS011;8078;47.822;9.402;2022-08-25T02:55:42;11.73;;;8.27;;
15958;SDS011;8078;47.822;9.402;2022-08-25T02:58:08;10.13;;;8.48;;
15958;SDS011;8078;47.822;9.402;2022-08-25T03:00:34;10.05;;;8.30;;
15958;SDS011;8078;47.822;9.402;2022-08-25T03:03:00;12.55;;;8.82;;
15958;SDS011;8078;47.822;9.402;2022-08-25T03:05:25;11.18;;;8.45;;
15958;SDS011;8078;47.822;9.402;2022-08-25T03:07:51;10.95;;;8.85;;
15958;SDS011;8078;47.822;9.402;2022-08-25T03:10:17;10.10;;;8.35;;
15958;SDS011;8078;47.822;9.402;2022-08-25T03:12:44;11.20;;;8.82;;
15958;SDS011;8078;47.822;9.402;2022-08-25T03:15:10;12.50;;;9.00;;
15958;SDS011;8078;47.822;9.402;2022-08-25T03:17:37;10.65;;;8.93;;
15958;SDS011;8078;47.822;9.402;2022-08-25T03:20:06;11.38;;;8.85;;
15958;SDS011;8078;47.822;9.402;2022-08-25T03:22:32;11.90;;;9.48;;
15958;SDS011;8078;47.822;9.402;2022-08-25T03:24:58;13.52;;;9.07;;
15958;SDS011;8078;47.822;9.402;2022-08-25T03:27:42;11.43;;;8.55;;
15958;SDS011;8078;47.822;9.402;2022-08-25T03:30:08;13.15;;;9.80;;
15958;SDS011;8078;47.822;9.402;2022-08-25T03:32:34;10.40;;;8.10;;
15958;SDS011;8078;47.822;9.402;2022-08-25T03:34:59;15.27;;;9.27;;
15958;SDS011;8078;47.822;9.402;2022-08-25T03:37:26;14.93;;;9.75;;
15958;SDS011;8078;47.822;9.402;2022-08-25T03:39:51;14.25;;;9.90;;
15958;SDS011;8078;47.822;9.402;2022-08-25T03:42:17;12.23;;;9.48;;
15958;SDS011;8078;47.822;9.402;2022-08-25T03:44:43;14.88;;;10.13;;
15958;SDS011;8078;47.822;9.402;2022-08-25T03:47:09;13.02;;;10.32;;
15958;SDS011;8078;47.822;9.402;2022-08-25T03:49:34;12.68;;;10.35;;
15958;SDS011;8078;47.822;9.402;2022-08-25T03:52:00;13.07;;;9.68;;
15958;SDS011;8078;47.822;9.402;2022-08-25T03:54:26;12.85;;;9.95;;
15958;SDS011;8078;47.822;9.402;2022-08-25T03:56:52;11.90;;;9.82;;
15958;SDS011;8078;47.822;9.402;2022-08-25T03:59:18;14.40;;;10.25;;
15958;SDS011;8078;47.822;9.402;2022-08-25T04:01:44;12.05;;;10.10;;
15958;SDS011;8078;47.822;9.402;2022-08-25T04:04:12;11.93;;;10.10;;
15958;SDS011;8078;47.822;9.402;2022-08-25T04:06:39;16.48;;;10.82;;
15958;SDS011;8078;47.822;9.402;2022-08-25T04:09:05;14.00;;;10.95;;
15958;SDS011;8078;47.822;9.402;2022-08-25T04:11:31;13.57;;;10.18;;
15958;SDS011;8078;47.822;9.402;2022-08-25T04:13:58;12.20;;;9.95;;
15958;SDS011;8078;47.822;9.402;2022-08-25T04:16:26;12.30;;;10.32;;
15958;SDS011;8078;47.822;9.402;2022-08-25T04:18:55;15.15;;;11.70;;
15958;SDS011;8078;47.822;9.402;2022-08-25T04:21:22;15.52;;;11.05;;
15958;SDS011;8078;47.822;9.402;2022-08-25T04:23:49;13.88;;;11.32;;
15958;SDS011;8078;47.822;9.402;2022-08-25T04:26:21;15.90;;;11.60;;
15958;SDS011;8078;47.822;9.402;2022-08-25T04:28:52;15.07;;;11.20;;
15958;SDS011;8078;47.822;9.402;2022-08-25T04:31:18;14.75;;;11.07;;
15958;SDS011;8078;47.822;9.402;2022-08-25T04:33:46;14.48;;;11.35;;
15958;SDS011;8078;47.822;9.402;2022-08-25T04:36:12;14.40;;;11.00;;
15958;SDS011;8078;47.822;9.402;2022-08-25T04:38:40;17.45;;;10.98;;
15958;SDS011;8078;47.822;9.402;2022-08-25T04:41:07;16.88;;;11.70;;
15958;SDS011;8078;47.822;9.402;2022-08-25T04:43:34;15.00;;;11.40;;
15958;SDS011;8078;47.822;9.402;2022-08-25T04:46:08;13.27;;;11.00;;
15958;SDS011;8078;47.822;9.402;2022-08-25T04:48:44;17.52;;;11.52;;
15958;SDS011;8078;47.822;9.402;2022-08-25T04:51:11;14.95;;;11.43;;
15958;SDS011;8078;47.822;9.402;2022-08-25T04:53:40;15.95;;;11.75;;
15958;SDS011;8078;47.822;9.402;2022-08-25T04:56:07;15.75;;;11.07;;
15958;SDS011;8078;47.822;9.402;2022-08-25T04:58:35;14.05;;;11.05;;
15958;SDS011;8078;47.822;9.402;2022-08-25T05:01:05;17.40;;;11.77;;
15958;SDS011;8078;47.822;9.402;2022-08-25T05:03:35;16.98;;;11.63;;
15958;SDS011;8078;47.822;9.402;2022-08-25T05:06:02;14.70;;;11.23;;
15958;SDS011;8078;47.822;9.402;2022-08-25T05:08:29;16.35;;;11.57;;
15958;SDS011;8078;47.822;9.402;2022-08-25T05:10:55;13.63;;;10.90;;
15958;SDS011;8078;47.822;9.402;2022-08-25T05:13:24;13.25;;;10.10;;
15958;SDS011;8078;47.822;9.402;2022-08-25T05:15:54;15.65;;;10.88;;
15958;SDS011;8078;47.822;9.402;2022-08-25T05:18:22;15.57;;;10.50;;
15958;SDS011;8078;47.822;9.402;2022-08-25T05:20:50;13.77;;;10.32;;
15958;SDS011;8078;47.822;9.402;2022-08-25T05:23:18;14.38;;;10.85;;
15958;SDS011;8078;47.822;9.402;2022-08-25T05:25:44;15.43;;;11.50;;
15958;SDS011;8078;47.822;9.402;2022-08-25T05:28:10;15.70;;;10.77;;
15958;SDS011;8078;47.822;9.402;2022-08-25T05:30:36;13.95;;;10.55;;
15958;SDS011;8078;47.822;9.402;2022-08-25T05:33:04;13.68;;;10.00;;
15958;SDS011;8078;47.822;9.402;2022-08-25T05:35:30;13.75;;;10.27;;
15958;SDS011;8078;47.822;9.402;2022-08-25T05:37:55;14.63;;;9.93;;
15958;SDS011;8078;47.822;9.402;2022-08-25T05:40:21;11.48;;;9.32;;
15958;SDS011;8078;47.822;9.402;2022-08-25T05:42:48;12.65;;;9.88;;
15958;SDS011;8078;47.822;9.402;2022-08-25T05:45:14;14.35;;;9.50;;
15958;SDS011;8078;47.822;9.402;2022-08-25T05:47:39;13.77;;;9.30;;
15958;SDS011;8078;47.822;9.402;2022-08-25T05:50:05;14.40;;;9.77;;
15958;SDS011;8078;47.822;9.402;2022-08-25T05:52:33;12.23;;;9.25;;
15958;SDS011;8078;47.822;9.402;2022-08-25T05:54:59;11.05;;;8.98;;
15958;SDS011;8078;47.822;9.402;2022-08-25T05:57:24;10.70;;;8.50;;
15958;SDS011;8078;47.822;9.402;2022-08-25T05:59:50;12.10;;;8.50;;
15958;SDS011;8078;47.822;9.402;2022-08-25T06:02:15;13.63;;;8.93;;
15958;SDS011;8078;47.822;9.402;2022-08-25T06:04:59;10.43;;;8.50;;
15958;SDS011;8078;47.822;9.402;2022-08-25T06:07:25;9.88;;;8.60;;
15958;SDS011;8078;47.822;9.402;2022-08-25T06:09:50;10.50;;;8.45;;
15958;SDS011;8078;47.822;9.402;2022-08-25T06:12:16;9.15;;;8.18;;
15958;SDS011;8078;47.822;9.402;2022-08-25T06:14:43;10.80;;;8.60;;
15958;SDS011;8078;47.822;9.402;2022-08-25T06:17:08;11.45;;;8.70;;
15958;SDS011;8078;47.822;9.402;2022-08-25T06:19:34;10.25;;;7.93;;
15958;SDS011;8078;47.822;9.402;2022-08-25T06:22:00;10.27;;;8.27;;
15958;SDS011;8078;47.822;9.402;2022-08-25T06:24:26;12.05;;;8.40;;
15958;SDS011;8078;47.822;9.402;2022-08-25T06:26:52;11.15;;;8.20;;
15958;SDS011;8078;47.822;9.402;2022-08-25T06:29:18;10.32;;;7.90;;
15958;SDS011;8078;47.822;9.402;2022-08-25T06:31:44;11.93;;;8.30;;
15958;SDS011;8078;47.822;9.402;2022-08-25T06:34:11;9.82;;;8.07;;
15958;SDS011;8078;47.822;9.402;2022-08-25T06:36:37;11.40;;;8.70;;
15958;SDS011;8078;47.822;9.402;2022-08-25T06:39:04;12.65;;;8.30;;
15958;SDS011;8078;47.822;9.402;2022-08-25T06:41:29;11.57;;;8.18;;
15958;SDS011;8078;47.822;9.402;2022-08-25T06:43:55;12.60;;;8.38;;
15958;SDS011;8078;47.822;9.402;2022-08-25T06:46:22;9.98;;;8.40;;
15958;SDS011;8078;47.822;9.402;2022-08-25T06:48:51;10.18;;;8.18;;
15958;SDS011;8078;47.822;9.402;2022-08-25T06:51:18;10.88;;;7.93;;
15958;SDS011;8078;47.822;9.402;2022-08-25T06:53:46;9.48;;;8.35;;
15958;SDS011;8078;47.822;9.402;2022-08-25T06:56:16;10.15;;;8.30;;
15958;SDS011;8078;47.822;9.402;2022-08-25T06:58:44;15.75;;;8.85;;
15958;SDS011;8078;47.822;9.402;2022-08-25T07:01:12;11.88;;;8.82;;
15958;SDS011;8078;47.822;9.402;2022-08-25T07:03:44;10.70;;;7.85;;
15958;SDS011;8078;47.822;9.402;2022-08-25T07:06:09;8.95;;;7.72;;
15958;SDS011;8078;47.822;9.402;2022-08-25T07:08:35;14.50;;;7.43;;
15958;SDS011;8078;47.822;9.402;2022-08-25T07:11:08;11.02;;;7.53;;
15958;SDS011;8078;47.822;9.402;2022-08-25T07:13:35;7.57;;;6.82;;
15958;SDS011;8078;47.822;9.402;2022-08-25T07:16:02;8.05;;;6.80;;
15958;SDS011;8078;47.822;9.402;2022-08-25T07:18:29;7.18;;;6.25;;
15958;SDS011;8078;47.822;9.402;2022-08-25T07:20:54;6.75;;;5.93;;
15958;SDS011;8078;47.822;9.402;2022-08-25T07:23:21;7.97;;;5.65;;
15958;SDS011;8078;47.822;9.402;2022-08-25T07:25:47;7.03;;;5.32;;
15958;SDS011;8078;47.822;9.402;2022-08-25T07:28:13;6.80;;;5.22;;
15958;SDS011;8078;47.822;9.402;2022-08-25T07:30:40;6.45;;;4.65;;
15958;SDS011;8078;47.822;9.402;2022-08-25T07:33:06;5.50;;;5.00;;
15958;SDS011;8078;47.822;9.402;2022-08-25T07:35:32;6.22;;;4.70;;
15958;SDS011;8078;47.822;9.402;2022-08-25T07:38:00;6.00;;;4.60;;
15958;SDS011;8078;47.822;9.402;2022-08-25T07:40:27;4.95;;;4.45;;
15958;SDS011;8078;47.822;9.402;2022-08-25T07:42:56;6.95;;;4.60;;
15958;SDS011;8078;47.822;9.402;2022-08-25T07:45:26;6.88;;;4.43;;
15958;SDS011;8078;47.822;9.402;2022-08-25T07:48:01;5.57;;;4.25;;
15958;SDS011;8078;47.822;9.402;2022-08-25T07:50:29;4.97;;;4.32;;
15958;SDS011;8078;47.822;9.402;2022-08-25T07:52:56;9.48;;;5.20;;
15958;SDS011;8078;47.822;9.402;2022-08-25T07:55:23;9.15;;;5.07;;
15958;SDS011;8078;47.822;9.402;2022-08-25T07:57:49;4.97;;;4.43;;
15958;SDS011;8078;47.822;9.402;2022-08-25T08:00:16;5.47;;;4.97;;
15958;SDS011;8078;47.822;9.402;2022-08-25T08:02:42;7.47;;;5.00;;
15958;SDS011;8078;47.822;9.402;2022-08-25T08:05:08;4.82;;;4.43;;
15958;SDS011;8078;47.822;9.402;2022-08-25T08:07:34;6.90;;;4.43;;
15958;SDS011;8078;47.822;9.402;2022-08-25T08:10:00;5.25;;;3.90;;
15958;SDS011;8078;47.822;9.402;2022-08-25T08:12:27;5.25;;;4.75;;
15958;SDS011;8078;47.822;9.402;2022-08-25T08:14:53;6.63;;;4.57;;
15958;SDS011;8078;47.822;9.402;2022-08-25T08:17:19;4.80;;;4.25;;
15958;SDS011;8078;47.822;9.402;2022-08-25T08:19:45;5.55;;;4.70;;
15958;SDS011;8078;47.822;9.402;2022-08-25T08:22:11;4.22;;;3.83;;
15958;SDS011;8078;47.822;9.402;2022-08-25T08:24:41;7.00;;;4.43;;
15958;SDS011;8078;47.822;9.402;2022-08-25T08:27:09;4.88;;;4.00;;
15958;SDS011;8078;47.822;9.402;2022-08-25T08:29:36;6.38;;;3.50;;
15958;SDS011;8078;47.822;9.402;2022-08-25T08:32:03;5.72;;;4.10;;
15958;SDS011;8078;47.822;9.402;2022-08-25T08:34:30;4.78;;;3.60;;
15958;SDS011;8078;47.822;9.402;2022-08-25T08:36:56;4.53;;;3.90;;
15958;SDS011;8078;47.822;9.402;2022-08-25T08:39:22;5.03;;;3.90;;
15958;SDS011;8078;47.822;9.402;2022-08-25T08:41:54;4.05;;;3.47;;
15958;SDS011;8078;47.822;9.402;2022-08-25T08:55:38;3.42;;;3.13;;
15958;SDS011;8078;47.822;9.402;2022-08-25T09:01:27;5.35;;;3.95;;
15958;SDS011;8078;47.822;9.402;2022-08-25T09:04:02;3.83;;;3.38;;
15958;SDS011;8078;47.822;9.402;2022-08-25T09:06:43;5.45;;;3.97;;
15958;SDS011;8078;47.822;9.402;2022-08-25T09:09:13;4.55;;;4.15;;
15958;SDS011;8078;47.822;9.402;2022-08-25T09:11:59;4.03;;;3.63;;
15958;SDS011;8078;47.822;9.402;2022-08-25T09:20:02;7.20;;;3.95;;
15958;SDS011;8078;47.822;9.402;2022-08-25T09:26:38;4.78;;;3.78;;
15958;SDS011;8078;47.822;9.402;2022-08-25T09:29:23;4.35;;;3.88;;
15958;SDS011;8078;47.822;9.402;2022-08-25T09:31:50;5.75;;;4.13;;
15958;SDS011;8078;47.822;9.402;2022-08-25T09:34:22;5.40;;;4.05;;
15958;SDS011;8078;47.822;9.402;2022-08-25T09:36:52;4.90;;;4.40;;
15958;SDS011;8078;47.822;9.402;2022-08-25T09:39:18;5.18;;;4.20;;
15958;SDS011;8078;47.822;9.402;2022-08-25T09:41:52;4.70;;;4.30;;
15958;SDS011;8078;47.822;9.402;2022-08-25T09:51:17;4.78;;;3.83;;
15958;SDS011;8078;47.822;9.402;2022-08-25T09:53:46;6.55;;;3.90;;
15958;SDS011;8078;47.822;9.402;2022-08-25T09:56:32;5.13;;;4.00;;
15958;SDS011;8078;47.822;9.402;2022-08-25T09:59:18;4.28;;;3.88;;
15958;SDS011;8078;47.822;9.402;2022-08-25T10:01:53;5.05;;;3.70;;
15958;SDS011;8078;47.822;9.402;2022-08-25T10:04:24;4.18;;;3.63;;
15958;SDS011;8078;47.822;9.402;2022-08-25T10:06:52;3.53;;;3.22;;
15958;SDS011;8078;47.822;9.402;2022-08-25T10:09:24;4.00;;;3.60;;
15958;SDS011;8078;47.822;9.402;2022-08-25T10:11:57;4.22;;;3.10;;
15958;SDS011;8078;47.822;9.402;2022-08-25T10:14:26;4.00;;;3.70;;
15958;SDS011;8078;47.822;9.402;2022-08-25T10:17:12;6.30;;;3.60;;
15958;SDS011;8078;47.822;9.402;2022-08-25T10:19:49;4.22;;;3.83;;
15958;SDS011;8078;47.822;9.402;2022-08-25T10:22:22;5.97;;;3.65;;
15958;SDS011;8078;47.822;9.402;2022-08-25T10:25:00;6.50;;;3.30;;
15958;SDS011;8078;47.822;9.402;2022-08-25T10:27:30;4.03;;;3.50;;
15958;SDS011;8078;47.822;9.402;2022-08-25T10:32:59;3.38;;;3.10;;
15958;SDS011;8078;47.822;9.402;2022-08-25T10:38:41;3.50;;;3.20;;
15958;SDS011;8078;47.822;9.402;2022-08-25T10:46:31;3.72;;;3.40;;
15958;SDS011;8078;47.822;9.402;2022-08-25T10:49:17;3.58;;;3.28;;
15958;SDS011;8078;47.822;9.402;2022-08-25T10:52:06;4.20;;;3.30;;
15958;SDS011;8078;47.822;9.402;2022-08-25T10:57:45;4.68;;;3.50;;
15958;SDS011;8078;47.822;9.402;2022-08-25T11:00:21;6.15;;;3.70;;
15958;SDS011;8078;47.822;9.402;2022-08-25T11:08:16;3.80;;;3.50;;
15958;SDS011;8078;47.822;9.402;2022-08-25T11:11:09;3.50;;;3.20;;
15958;SDS011;8078;47.822;9.402;2022-08-25T11:13:47;5.78;;;3.55;;
15958;SDS011;8078;47.822;9.402;2022-08-25T11:16:15;3.40;;;3.05;;
15958;SDS011;8078;47.822;9.402;2022-08-25T11:18:54;3.33;;;3.03;;
15958;SDS011;8078;47.822;9.402;2022-08-25T11:21:37;7.22;;;3.40;;
15958;SDS011;8078;47.822;9.402;2022-08-25T11:26:42;4.18;;;3.28;;
15958;SDS011;8078;47.822;9.402;2022-08-25T11:29:16;3.72;;;3.35;;
15958;SDS011;8078;47.822;9.402;2022-08-25T11:31:46;4.25;;;3.22;;
15958;SDS011;8078;47.822;9.402;2022-08-25T11:34:17;3.63;;;3.30;;
15958;SDS011;8078;47.822;9.402;2022-08-25T11:48:02;3.38;;;2.97;;
15958;SDS011;8078;47.822;9.402;2022-08-25T11:50:54;3.03;;;2.65;;
15958;SDS011;8078;47.822;9.402;2022-08-25T11:53:27;3.13;;;2.83;;
15958;SDS011;8078;47.822;9.402;2022-08-25T11:55:55;3.33;;;2.95;;
15958;SDS011;8078;47.822;9.402;2022-08-25T12:00:52;3.15;;;2.88;;
15958;SDS011;8078;47.822;9.402;2022-08-25T12:16:41;3.42;;;2.90;;
15958;SDS011;8078;47.822;9.402;2022-08-25T12:27:08;4.53;;;3.50;;
15958;SDS011;8078;47.822;9.402;2022-08-25T12:35:56;3.50;;;3.20;;
15958;SDS011;8078;47.822;9.402;2022-08-25T12:38:43;3.35;;;3.08;;
15958;SDS011;8078;47.822;9.402;2022-08-25T12:41:17;3.75;;;2.85;;
15958;SDS011;8078;47.822;9.402;2022-08-25T12:43:46;3.72;;;3.42;;
15958;SDS011;8078;47.822;9.402;2022-08-25T12:48:53;3.38;;;3.08;;
15958;SDS011;8078;47.822;9.402;2022-08-25T12:51:20;3.42;;;2.92;;
15958;SDS011;8078;47.822;9.402;2022-08-25T12:53:51;3.95;;;2.90;;
15958;SDS011;8078;47.822;9.402;2022-08-25T12:56:45;3.10;;;2.72;;
15958;SDS011;8078;47.822;9.402;2022-08-25T12:59:23;4.93;;;2.50;;
15958;SDS011;8078;47.822;9.402;2022-08-25T13:10:55;3.05;;;2.72;;
15958;SDS011;8078;47.822;9.402;2022-08-25T13:13:50;3.08;;;2.80;;
15958;SDS011;8078;47.822;9.402;2022-08-25T13:16:25;3.67;;;3.03;;
15958;SDS011;8078;47.822;9.402;2022-08-25T13:18:52;4.10;;;2.60;;
15958;SDS011;8078;47.822;9.402;2022-08-25T13:21:23;3.13;;;2.80;;
15958;SDS011;8078;47.822;9.402;2022-08-25T13:24:08;4.93;;;2.65;;
15958;SDS011;8078;47.822;9.402;2022-08-25T13:26:41;3.75;;;2.90;;
15958;SDS011;8078;47.822;9.402;2022-08-25T13:31:33;2.53;;;2.22;;
15958;SDS011;8078;47.822;9.402;2022-08-25T13:34:06;2.60;;;2.40;;
15958;SDS011;8078;47.822;9.402;2022-08-25T13:36:42;3.17;;;2.88;;
15958;SDS011;8078;47.822;9.402;2022-08-25T13:39:27;2.80;;;2.60;;
15958;SDS011;8078;47.822;9.402;2022-08-25T13:41:55;5.28;;;2.90;;
15958;SDS011;8078;47.822;9.402;2022-08-25T13:44:25;4.72;;;2.85;;
15958;SDS011;8078;47.822;9.402;2022-08-25T13:47:09;3.03;;;2.83;;
15958;SDS011;8078;47.822;9.402;2022-08-25T13:50:06;4.53;;;2.38;;
15958;SDS011;8078;47.822;9.402;2022-08-25T13:53:26;3.10;;;2.30;;
15958;SDS011;8078;47.822;9.402;2022-08-25T13:55:49;4.13;;;2.47;;
15958;SDS011;8078;47.822;9.402;2022-08-25T13:58:21;3.67;;;2.22;;
15958;SDS011;8078;47.822;9.402;2022-08-25T14:01:12;2.92;;;2.30;;
15958;SDS011;8078;47.822;9.402;2022-08-25T14:03:39;2.65;;;2.20;;
15958;SDS011;8078;47.822;9.402;2022-08-25T14:06:18;3.33;;;2.50;;
15958;SDS011;8078;47.822;9.402;2022-08-25T14:08:48;2.40;;;2.00;;
15958;SDS011;8078;47.822;9.402;2022-08-25T14:14:02;4.55;;;2.30;;
15958;SDS011;8078;47.822;9.402;2022-08-25T14:16:33;5.45;;;2.28;;
15958;SDS011;8078;47.822;9.402;2022-08-25T14:19:04;2.92;;;2.45;;
15958;SDS011;8078;47.822;9.402;2022-08-25T14:21:36;2.70;;;2.50;;
15958;SDS011;8078;47.822;9.402;2022-08-25T14:24:01;2.63;;;2.25;;
15958;SDS011;8078;47.822;9.402;2022-08-25T14:26:27;4.70;;;2.33;;
15958;SDS011;8078;47.822;9.402;2022-08-25T14:28:53;2.13;;;2.03;;
15958;SDS011;8078;47.822;9.402;2022-08-25T14:31:23;2.85;;;2.30;;
15958;SDS011;8078;47.822;9.402;2022-08-25T14:33:54;3.38;;;2.45;;
15958;SDS011;8078;47.822;9.402;2022-08-25T14:36:23;2.10;;;2.00;;
15958;SDS011;8078;47.822;9.402;2022-08-25T14:38:49;2.70;;;2.40;;
15958;SDS011;8078;47.822;9.402;2022-08-25T14:41:14;5.82;;;2.00;;
15958;SDS011;8078;47.822;9.402;2022-08-25T14:43:40;5.53;;;2.13;;
15958;SDS011;8078;47.822;9.402;2022-08-25T14:46:08;3.63;;;2.20;;
15958;SDS011;8078;47.822;9.402;2022-08-25T14:48:42;4.90;;;2.00;;
15958;SDS011;8078;47.822;9.402;2022-08-25T14:51:09;2.38;;;2.17;;
15958;SDS011;8078;47.822;9.402;2022-08-25T14:53:37;2.45;;;2.22;;
15958;SDS011;8078;47.822;9.402;2022-08-25T14:56:03;2.10;;;1.90;;
15958;SDS011;8078;47.822;9.402;2022-08-25T14:58:29;2.40;;;2.20;;
15958;SDS011;8078;47.822;9.402;2022-08-25T15:00:55;2.33;;;2.00;;
15958;SDS011;8078;47.822;9.402;2022-08-25T15:06:17;2.45;;;2.25;;
15958;SDS011;8078;47.822;9.402;2022-08-25T15:08:43;3.42;;;2.25;;
15958;SDS011;8078;47.822;9.402;2022-08-25T15:11:28;1.83;;;1.73;;
15958;SDS011;8078;47.822;9.402;2022-08-25T15:13:54;2.78;;;1.90;;
15958;SDS011;8078;47.822;9.402;2022-08-25T15:16:25;2.10;;;2.00;;
15958;SDS011;8078;47.822;9.402;2022-08-25T15:18:56;3.70;;;1.90;;
15958;SDS011;8078;47.822;9.402;2022-08-25T15:21:22;2.35;;;2.00;;
15958;SDS011;8078;47.822;9.402;2022-08-25T15:23:48;4.93;;;2.10;;
15958;SDS011;8078;47.822;9.402;2022-08-25T15:26:14;3.08;;;2.03;;
15958;SDS011;8078;47.822;9.402;2022-08-25T15:28:42;3.65;;;2.08;;
15958;SDS011;8078;47.822;9.402;2022-08-25T15:31:12;2.22;;;2.03;;
15958;SDS011;8078;47.822;9.402;2022-08-25T15:33:38;2.15;;;1.63;;
15958;SDS011;8078;47.822;9.402;2022-08-25T15:36:06;4.15;;;2.00;;
15958;SDS011;8078;47.822;9.402;2022-08-25T15:38:35;3.25;;;1.80;;
15958;SDS011;8078;47.822;9.402;2022-08-25T15:41:01;2.20;;;2.00;;
15958;SDS011;8078;47.822;9.402;2022-08-25T15:43:27;3.15;;;1.80;;
15958;SDS011;8078;47.822;9.402;2022-08-25T15:45:53;1.90;;;1.65;;
15958;SDS011;8078;47.822;9.402;2022-08-25T15:48:18;2.22;;;1.80;;
15958;SDS011;8078;47.822;9.402;2022-08-25T15:50:44;3.10;;;1.80;;
15958;SDS011;8078;47.822;9.402;2022-08-25T15:53:11;2.28;;;2.08;;
15958;SDS011;8078;47.822;9.402;2022-08-25T15:55:37;2.40;;;2.20;;
15958;SDS011;8078;47.822;9.402;2022-08-25T15:58:04;3.13;;;2.05;;
15958;SDS011;8078;47.822;9.402;2022-08-25T16:00:30;3.38;;;2.17;;
15958;SDS011;8078;47.822;9.402;2022-08-25T16:02:56;2.22;;;1.63;;
15958;SDS011;8078;47.822;9.402;2022-08-25T16:05:21;3.35;;;2.00;;
15958;SDS011;8078;47.822;9.402;2022-08-25T16:07:47;3.75;;;1.88;;
15958;SDS011;8078;47.822;9.402;2022-08-25T16:10:13;2.30;;;2.10;;
15958;SDS011;8078;47.822;9.402;2022-08-25T16:12:39;1.80;;;1.70;;
15958;SDS011;8078;47.822;9.402;2022-08-25T16:15:05;2.00;;;1.65;;
15958;SDS011;8078;47.822;9.402;2022-08-25T16:17:31;2.90;;;1.67;;
15958;SDS011;8078;47.822;9.402;2022-08-25T16:19:57;2.75;;;2.20;;
15958;SDS011;8078;47.822;9.402;2022-08-25T16:22:22;2.03;;;1.83;;
15958;SDS011;8078;47.822;9.402;2022-08-25T16:24:48;2.58;;;2.22;;
15958;SDS011;8078;47.822;9.402;2022-08-25T16:27:14;2.15;;;1.95;;
15958;SDS011;8078;47.822;9.402;2022-08-25T16:29:41;2.47;;;2.00;;
15958;SDS011;8078;47.822;9.402;2022-08-25T16:32:08;3.28;;;1.95;;
15958;SDS011;8078;47.822;9.402;2022-08-25T16:34:35;5.85;;;2.33;;
15958;SDS011;8078;47.822;9.402;2022-08-25T16:37:02;3.30;;;2.00;;
15958;SDS011;8078;47.822;9.402;2022-08-25T16:39:28;3.60;;;2.13;;
15958;SDS011;8078;47.822;9.402;2022-08-25T16:41:54;2.75;;;1.90;;
15958;SDS011;8078;47.822;9.402;2022-08-25T16:44:20;2.13;;;1.95;;
15958;SDS011;8078;47.822;9.402;2022-08-25T16:46:46;2.33;;;1.92;;
15958;SDS011;8078;47.822;9.402;2022-08-25T16:49:12;2.97;;;1.90;;
15958;SDS011;8078;47.822;9.402;2022-08-25T16:51:39;4.10;;;2.10;;
15958;SDS011;8078;47.822;9.402;2022-08-25T16:54:06;2.58;;;1.95;;
15958;SDS011;8078;47.822;9.402;2022-08-25T16:56:51;2.10;;;1.90;;
15958;SDS011;8078;47.822;9.402;2022-08-25T16:59:17;2.20;;;2.00;;
15958;SDS011;8078;47.822;9.402;2022-08-25T17:01:43;2.03;;;1.85;;
15958;SDS011;8078;47.822;9.402;2022-08-25T17:04:09;2.33;;;1.80;;
15958;SDS011;8078;47.822;9.402;2022-08-25T17:06:37;2.47;;;1.80;;